createdAt,value
2022-08-24T00:12:18.043Z,23.2
2022-08-24T00:27:27.778Z,23
2022-08-24T00:42:37.041Z,22.9
2022-08-24T00:57:46.577Z,22.7
2022-08-24T01:13:00.861Z,22.6
2022-08-24T01:28:10.943Z,22.5
2022-08-24T01:43:20.326Z,22.4
2022-08-24T01:58:30.182Z,22.3
2022-08-24T02:13:39.582Z,22.2
2022-08-24T02:28:48.969Z,22
2022-08-24T02:43:58.421Z,21.8
2022-08-24T02:59:08.141Z,21.7
2022-08-24T03:14:17.335Z,21.6
2022-08-24T03:29:26.913Z,21.3
2022-08-24T03:44:43.627Z,21.1
2022-08-24T03:59:53.166Z,21
2022-08-24T04:15:02.769Z,20.9
2022-08-24T04:30:14.336Z,20.8
2022-08-24T04:45:24.485Z,20.6
2022-08-24T05:00:34.165Z,20.6
2022-08-24T05:15:44.411Z,20.6
2022-08-24T05:30:53.899Z,20.6
2022-08-24T05:46:04.056Z,20.8
2022-08-24T06:01:13.717Z,21
2022-08-24T06:16:25.860Z,21.2
2022-08-24T06:31:36.227Z,21.5
2022-08-24T06:46:52.939Z,21.6
2022-08-24T07:02:03.099Z,21.9
2022-08-24T07:17:15.868Z,22.1
2022-08-24T07:32:25.652Z,22.4
2022-08-24T07:47:38.708Z,22.7
2022-08-24T08:03:07.688Z,23
2022-08-24T08:18:24.161Z,23.3
2022-08-24T08:33:33.812Z,23.6
2022-08-24T08:48:43.689Z,23.9
2022-08-24T09:03:53.340Z,24.3
2022-08-24T09:19:05.620Z,24.6
2022-08-24T09:34:19.165Z,24.9
2022-08-24T09:49:29.422Z,25.1
2022-08-24T10:04:39.226Z,25.5
2022-08-24T10:19:49.785Z,26
2022-08-24T10:34:59.539Z,26.2
2022-08-24T10:50:08.978Z,26.5
2022-08-24T11:05:18.622Z,26.7
2022-08-24T11:20:28.874Z,27
2022-08-24T11:35:38.132Z,27.2
2022-08-24T11:50:48.157Z,27.6
2022-08-24T12:05:57.924Z,28.2
2022-08-24T12:21:12.649Z,30.7
2022-08-24T12:36:25.736Z,31
2022-08-24T12:51:35.420Z,31.6
2022-08-24T13:06:45.609Z,32.2
2022-08-24T13:21:55.943Z,32.7
2022-08-24T13:37:12.355Z,33.5
2022-08-24T13:52:23.123Z,34.3
2022-08-24T14:07:33.389Z,34.9
2022-08-24T14:22:43.059Z,35.4
2022-08-24T14:37:59.581Z,36.3
2022-08-24T14:53:08.747Z,36.4
2022-08-24T15:08:19.391Z,36.9
2022-08-24T15:23:29.424Z,37.7
2022-08-24T15:38:39.389Z,37.4
2022-08-24T15:53:50.050Z,35.2
2022-08-24T16:08:58.510Z,33.4
2022-08-24T16:24:06.967Z,32.3
2022-08-24T16:39:17.229Z,31.6
2022-08-24T16:54:26.080Z,30.9
2022-08-24T17:09:35.255Z,30.4
2022-08-24T17:24:45.078Z,30
2022-08-24T17:39:54.531Z,29.6
2022-08-24T17:55:06.917Z,29.2
2022-08-24T18:10:17.043Z,28.9
2022-08-24T18:25:27.295Z,28.6
2022-08-24T18:40:35.919Z,28.3
2022-08-24T18:55:46.095Z,28
2022-08-24T19:10:55.213Z,27.7
2022-08-24T19:26:04.789Z,27.4
2022-08-24T19:41:14.347Z,27.1
2022-08-24T19:56:30.128Z,26.9
2022-08-24T20:11:39.621Z,26.6
2022-08-24T20:26:48.712Z,26.4
2022-08-24T20:41:58.218Z,26.1
2022-08-24T20:57:07.579Z,25.9
2022-08-24T21:12:18.055Z,25.7
2022-08-24T21:27:26.920Z,25.4
2022-08-24T21:42:35.960Z,25.2
2022-08-24T21:57:47.617Z,24.9
2022-08-24T22:12:56.410Z,24.7
2022-08-24T22:28:14.631Z,24.5
2022-08-24T22:43:25.147Z,24.4
2022-08-24T22:58:34.313Z,24.3
2022-08-24T23:13:43.834Z,24.1
2022-08-24T23:28:52.882Z,23.9
2022-08-24T23:44:02.247Z,23.8
2022-08-24T23:59:11.537Z,23.6
